sensor_id;sensor_type;location;lat;lon;timestamp;temperature;humidity
25410;DHT22;13339;50.840;4.346;2023-08-24T00:01:36;23.00;99.90
25410;DHT22;13339;50.840;4.346;2023-08-24T00:04:02;23.00;99.90
25410;DHT22;13339;50.840;4.346;2023-08-24T00:06:28;22.90;99.90
25410;DHT22;13339;50.840;4.346;2023-08-24T00:08:53;22.90;99.90
25410;DHT22;13339;50.840;4.346;2023-08-24T00:11:19;22.80;99.90
25410;DHT22;13339;50.840;4.346;2023-08-24T00:13:45;22.90;99.90
25410;DHT22;13339;50.840;4.346;2023-08-24T00:16:19;22.90;99.90
25410;DHT22;13339;50.840;4.346;2023-08-24T00:18:46;22.90;99.90
25410;DHT22;13339;50.840;4.346;2023-08-24T00:21:15;23.00;99.90
25410;DHT22;13339;50.840;4.346;2023-08-24T00:23:48;23.10;99.90
25410;DHT22;13339;50.840;4.346;2023-08-24T00:26:14;23.20;99.90
25410;DHT22;13339;50.840;4.346;2023-08-24T00:28:42;23.20;99.90
25410;DHT22;13339;50.840;4.346;2023-08-24T00:31:08;23.20;99.90
25410;DHT22;13339;50.840;4.346;2023-08-24T00:33:33;23.30;99.90
25410;DHT22;13339;50.840;4.346;2023-08-24T00:36:00;23.30;99.90
25410;DHT22;13339;50.840;4.346;2023-08-24T00:38:26;23.30;99.90
25410;DHT22;13339;50.840;4.346;2023-08-24T00:40:52;23.40;99.90
25410;DHT22;13339;50.840;4.346;2023-08-24T00:43:19;23.30;99.90
25410;DHT22;13339;50.840;4.346;2023-08-24T00:45:50;23.20;99.90
25410;DHT22;13339;50.840;4.346;2023-08-24T00:48:17;23.10;99.90
25410;DHT22;13339;50.840;4.346;2023-08-24T00:50:42;23.20;99.90
25410;DHT22;13339;50.840;4.346;2023-08-24T00:53:08;23.30;99.90
25410;DHT22;13339;50.840;4.346;2023-08-24T00:55:34;23.30;99.90
25410;DHT22;13339;50.840;4.346;2023-08-24T00:58:00;23.30;99.90
25410;DHT22;13339;50.840;4.346;2023-08-24T01:00:28;23.40;99.90
25410;DHT22;13339;50.840;4.346;2023-08-24T01:02:54;23.40;99.90
25410;DHT22;13339;50.840;4.346;2023-08-24T01:05:20;23.30;99.90
25410;DHT22;13339;50.840;4.346;2023-08-24T01:07:46;23.30;99.90
25410;DHT22;13339;50.840;4.346;2023-08-24T01:10:12;23.30;99.90
25410;DHT22;13339;50.840;4.346;2023-08-24T01:17:43;23.10;99.90
25410;DHT22;13339;50.840;4.346;2023-08-24T01:20:10;23.20;99.90
25410;DHT22;13339;50.840;4.346;2023-08-24T01:25:46;23.40;99.90
25410;DHT22;13339;50.840;4.346;2023-08-24T01:28:05;23.50;99.90
25410;DHT22;13339;50.840;4.346;2023-08-24T01:30:32;23.50;99.90
25410;DHT22;13339;50.840;4.346;2023-08-24T01:32:58;23.30;99.90
25410;DHT22;13339;50.840;4.346;2023-08-24T01:35:24;23.20;99.90
25410;DHT22;13339;50.840;4.346;2023-08-24T01:37:50;23.30;99.90
25410;DHT22;13339;50.840;4.346;2023-08-24T01:43:03;23.50;99.90
25410;DHT22;13339;50.840;4.346;2023-08-24T01:45:32;23.50;99.90
25410;DHT22;13339;50.840;4.346;2023-08-24T01:48:01;23.60;99.90
25410;DHT22;13339;50.840;4.346;2023-08-24T01:50:28;23.30;99.90
25410;DHT22;13339;50.840;4.346;2023-08-24T01:52:55;23.20;99.90
25410;DHT22;13339;50.840;4.346;2023-08-24T01:55:20;23.10;99.90
25410;DHT22;13339;50.840;4.346;2023-08-24T01:57:47;23.00;99.90
25410;DHT22;13339;50.840;4.346;2023-08-24T02:00:13;23.10;99.90
25410;DHT22;13339;50.840;4.346;2023-08-24T02:02:39;23.10;99.90
25410;DHT22;13339;50.840;4.346;2023-08-24T02:05:05;23.10;99.90
25410;DHT22;13339;50.840;4.346;2023-08-24T02:07:31;23.20;99.90
25410;DHT22;13339;50.840;4.346;2023-08-24T02:09:56;23.20;99.90
25410;DHT22;13339;50.840;4.346;2023-08-24T02:12:22;23.30;99.90
25410;DHT22;13339;50.840;4.346;2023-08-24T02:14:47;23.40;99.90
25410;DHT22;13339;50.840;4.346;2023-08-24T02:17:13;23.40;99.90
25410;DHT22;13339;50.840;4.346;2023-08-24T02:19:40;23.40;99.90
25410;DHT22;13339;50.840;4.346;2023-08-24T02:22:07;23.20;99.90
25410;DHT22;13339;50.840;4.346;2023-08-24T02:24:33;23.20;99.90
25410;DHT22;13339;50.840;4.346;2023-08-24T02:26:59;23.00;99.90
25410;DHT22;13339;50.840;4.346;2023-08-24T02:29:24;22.70;99.90
25410;DHT22;13339;50.840;4.346;2023-08-24T02:31:51;22.60;99.90
25410;DHT22;13339;50.840;4.346;2023-08-24T02:34:17;22.40;99.90
25410;DHT22;13339;50.840;4.346;2023-08-24T02:36:43;22.30;99.90
25410;DHT22;13339;50.840;4.346;2023-08-24T02:39:08;22.30;99.90
25410;DHT22;13339;50.840;4.346;2023-08-24T02:41:34;22.30;99.90
25410;DHT22;13339;50.840;4.346;2023-08-24T02:44:01;22.20;99.90
25410;DHT22;13339;50.840;4.346;2023-08-24T02:46:27;22.20;99.90
25410;DHT22;13339;50.840;4.346;2023-08-24T02:48:52;22.10;99.90
25410;DHT22;13339;50.840;4.346;2023-08-24T02:51:21;22.10;99.90
25410;DHT22;13339;50.840;4.346;2023-08-24T02:53:47;22.10;99.90
25410;DHT22;13339;50.840;4.346;2023-08-24T02:56:12;22.00;99.90
25410;DHT22;13339;50.840;4.346;2023-08-24T02:58:38;21.90;99.90
25410;DHT22;13339;50.840;4.346;2023-08-24T03:01:07;21.90;99.90
25410;DHT22;13339;50.840;4.346;2023-08-24T03:03:34;22.00;99.90
25410;DHT22;13339;50.840;4.346;2023-08-24T03:06:02;22.00;99.90
25410;DHT22;13339;50.840;4.346;2023-08-24T03:08:29;22.00;99.90
25410;DHT22;13339;50.840;4.346;2023-08-24T03:10:55;22.00;99.90
25410;DHT22;13339;50.840;4.346;2023-08-24T03:13:22;22.00;99.90
25410;DHT22;13339;50.840;4.346;2023-08-24T03:15:48;22.00;99.90
25410;DHT22;13339;50.840;4.346;2023-08-24T03:18:15;22.10;99.90
25410;DHT22;13339;50.840;4.346;2023-08-24T03:20:41;22.10;99.90
25410;DHT22;13339;50.840;4.346;2023-08-24T03:23:07;22.00;99.90
25410;DHT22;13339;50.840;4.346;2023-08-24T03:25:36;22.10;99.90
25410;DHT22;13339;50.840;4.346;2023-08-24T03:28:03;22.20;99.90
25410;DHT22;13339;50.840;4.346;2023-08-24T03:30:28;22.10;99.90
25410;DHT22;13339;50.840;4.346;2023-08-24T03:32:54;22.30;99.90
25410;DHT22;13339;50.840;4.346;2023-08-24T03:35:20;22.40;99.90
25410;DHT22;13339;50.840;4.346;2023-08-24T03:37:45;22.50;99.90
25410;DHT22;13339;50.840;4.346;2023-08-24T03:40:12;22.50;99.90
25410;DHT22;13339;50.840;4.346;2023-08-24T03:42:38;22.50;99.90
25410;DHT22;13339;50.840;4.346;2023-08-24T03:45:04;22.60;99.90
25410;DHT22;13339;50.840;4.346;2023-08-24T03:47:29;22.70;99.90
25410;DHT22;13339;50.840;4.346;2023-08-24T03:49:55;22.70;99.90
25410;DHT22;13339;50.840;4.346;2023-08-24T03:52:21;22.70;99.90
25410;DHT22;13339;50.840;4.346;2023-08-24T03:54:46;22.60;99.90
25410;DHT22;13339;50.840;4.346;2023-08-24T03:57:12;22.60;99.90
25410;DHT22;13339;50.840;4.346;2023-08-24T03:59:38;22.50;99.90
25410;DHT22;13339;50.840;4.346;2023-08-24T04:02:03;22.50;99.90
25410;DHT22;13339;50.840;4.346;2023-08-24T04:04:32;22.60;99.90
25410;DHT22;13339;50.840;4.346;2023-08-24T04:06:58;22.60;99.90
25410;DHT22;13339;50.840;4.346;2023-08-24T04:09:24;22.80;99.90
25410;DHT22;13339;50.840;4.346;2023-08-24T04:11:49;22.80;99.90
25410;DHT22;13339;50.840;4.346;2023-08-24T04:14:15;22.90;99.90
25410;DHT22;13339;50.840;4.346;2023-08-24T04:16:41;22.90;99.90
25410;DHT22;13339;50.840;4.346;2023-08-24T04:19:08;23.00;99.90
25410;DHT22;13339;50.840;4.346;2023-08-24T04:21:35;22.90;99.90
25410;DHT22;13339;50.840;4.346;2023-08-24T04:24:00;23.00;99.90
25410;DHT22;13339;50.840;4.346;2023-08-24T04:26:26;23.00;99.90
25410;DHT22;13339;50.840;4.346;2023-08-24T04:28:52;23.10;99.90
25410;DHT22;13339;50.840;4.346;2023-08-24T04:31:18;23.10;99.90
25410;DHT22;13339;50.840;4.346;2023-08-24T04:33:44;23.00;99.90
25410;DHT22;13339;50.840;4.346;2023-08-24T04:36:09;23.10;99.90
25410;DHT22;13339;50.840;4.346;2023-08-24T04:38:35;23.10;99.90
25410;DHT22;13339;50.840;4.346;2023-08-24T04:41:01;23.20;99.90
25410;DHT22;13339;50.840;4.346;2023-08-24T04:43:26;23.20;99.90
25410;DHT22;13339;50.840;4.346;2023-08-24T04:45:54;23.20;99.90
25410;DHT22;13339;50.840;4.346;2023-08-24T04:48:24;23.10;99.90
25410;DHT22;13339;50.840;4.346;2023-08-24T04:50:51;23.20;99.90
25410;DHT22;13339;50.840;4.346;2023-08-24T04:53:19;23.10;99.90
25410;DHT22;13339;50.840;4.346;2023-08-24T04:55:46;23.10;99.90
25410;DHT22;13339;50.840;4.346;2023-08-24T04:58:12;23.10;99.90
25410;DHT22;13339;50.840;4.346;2023-08-24T05:00:38;23.20;99.90
25410;DHT22;13339;50.840;4.346;2023-08-24T05:03:05;23.20;99.90
25410;DHT22;13339;50.840;4.346;2023-08-24T05:05:32;23.20;99.90
25410;DHT22;13339;50.840;4.346;2023-08-24T05:07:59;23.20;99.90
25410;DHT22;13339;50.840;4.346;2023-08-24T05:10:25;23.20;99.90
25410;DHT22;13339;50.840;4.346;2023-08-24T05:12:51;23.10;99.90
25410;DHT22;13339;50.840;4.346;2023-08-24T05:15:17;23.10;99.90
25410;DHT22;13339;50.840;4.346;2023-08-24T05:17:43;23.10;99.90
25410;DHT22;13339;50.840;4.346;2023-08-24T05:20:09;23.10;99.90
25410;DHT22;13339;50.840;4.346;2023-08-24T05:22:38;23.00;99.90
25410;DHT22;13339;50.840;4.346;2023-08-24T05:25:03;23.00;99.90
25410;DHT22;13339;50.840;4.346;2023-08-24T05:27:30;23.10;99.90
25410;DHT22;13339;50.840;4.346;2023-08-24T05:29:56;23.10;99.90
25410;DHT22;13339;50.840;4.346;2023-08-24T05:32:21;23.20;99.90
25410;DHT22;13339;50.840;4.346;2023-08-24T05:34:47;23.20;99.90
25410;DHT22;13339;50.840;4.346;2023-08-24T05:37:13;23.30;99.90
25410;DHT22;13339;50.840;4.346;2023-08-24T05:39:39;23.30;99.90
25410;DHT22;13339;50.840;4.346;2023-08-24T05:42:05;23.30;99.90
25410;DHT22;13339;50.840;4.346;2023-08-24T05:44:30;23.40;99.90
25410;DHT22;13339;50.840;4.346;2023-08-24T05:46:56;23.40;99.90
25410;DHT22;13339;50.840;4.346;2023-08-24T05:49:22;23.40;99.90
25410;DHT22;13339;50.840;4.346;2023-08-24T05:51:50;23.50;99.90
25410;DHT22;13339;50.840;4.346;2023-08-24T05:54:16;23.50;99.90
25410;DHT22;13339;50.840;4.346;2023-08-24T05:56:44;23.50;99.90
25410;DHT22;13339;50.840;4.346;2023-08-24T05:59:10;23.50;99.90
25410;DHT22;13339;50.840;4.346;2023-08-24T06:01:36;23.40;99.90
25410;DHT22;13339;50.840;4.346;2023-08-24T06:04:08;23.30;99.90
25410;DHT22;13339;50.840;4.346;2023-08-24T06:06:34;23.40;99.90
25410;DHT22;13339;50.840;4.346;2023-08-24T06:09:00;23.40;99.90
25410;DHT22;13339;50.840;4.346;2023-08-24T06:11:25;23.40;99.90
25410;DHT22;13339;50.840;4.346;2023-08-24T06:13:51;23.50;99.90
25410;DHT22;13339;50.840;4.346;2023-08-24T06:16:19;23.60;99.90
25410;DHT22;13339;50.840;4.346;2023-08-24T06:18:45;23.60;99.90
25410;DHT22;13339;50.840;4.346;2023-08-24T06:21:10;23.80;99.90
25410;DHT22;13339;50.840;4.346;2023-08-24T06:23:36;23.90;99.90
25410;DHT22;13339;50.840;4.346;2023-08-24T06:26:02;24.00;99.90
25410;DHT22;13339;50.840;4.346;2023-08-24T06:28:28;24.00;99.90
25410;DHT22;13339;50.840;4.346;2023-08-24T06:30:55;24.00;99.90
25410;DHT22;13339;50.840;4.346;2023-08-24T06:33:20;24.10;99.90
25410;DHT22;13339;50.840;4.346;2023-08-24T06:35:46;24.30;99.90
25410;DHT22;13339;50.840;4.346;2023-08-24T06:38:13;24.30;99.90
25410;DHT22;13339;50.840;4.346;2023-08-24T06:40:39;24.60;99.90
25410;DHT22;13339;50.840;4.346;2023-08-24T06:43:04;24.70;99.90
25410;DHT22;13339;50.840;4.346;2023-08-24T06:45:30;24.90;99.90
25410;DHT22;13339;50.840;4.346;2023-08-24T06:47:56;25.00;99.90
25410;DHT22;13339;50.840;4.346;2023-08-24T06:50:22;25.20;99.90
25410;DHT22;13339;50.840;4.346;2023-08-24T06:52:48;25.10;99.90
25410;DHT22;13339;50.840;4.346;2023-08-24T06:55:13;25.00;99.90
25410;DHT22;13339;50.840;4.346;2023-08-24T06:57:39;25.10;99.90
25410;DHT22;13339;50.840;4.346;2023-08-24T07:00:06;25.20;99.90
25410;DHT22;13339;50.840;4.346;2023-08-24T07:02:35;25.30;99.90
25410;DHT22;13339;50.840;4.346;2023-08-24T07:05:03;25.40;99.90
25410;DHT22;13339;50.840;4.346;2023-08-24T07:07:30;25.60;99.90
25410;DHT22;13339;50.840;4.346;2023-08-24T07:09:56;25.70;99.90
25410;DHT22;13339;50.840;4.346;2023-08-24T07:12:21;26.00;99.90
25410;DHT22;13339;50.840;4.346;2023-08-24T07:14:47;26.20;99.90
25410;DHT22;13339;50.840;4.346;2023-08-24T07:17:13;26.20;99.90
25410;DHT22;13339;50.840;4.346;2023-08-24T07:19:38;26.20;99.90
25410;DHT22;13339;50.840;4.346;2023-08-24T07:22:04;26.20;99.90
25410;DHT22;13339;50.840;4.346;2023-08-24T07:24:29;26.40;99.90
25410;DHT22;13339;50.840;4.346;2023-08-24T07:26:55;26.30;99.90
25410;DHT22;13339;50.840;4.346;2023-08-24T07:29:21;26.60;99.90
25410;DHT22;13339;50.840;4.346;2023-08-24T07:31:47;26.70;99.90
25410;DHT22;13339;50.840;4.346;2023-08-24T07:34:14;26.70;99.90
25410;DHT22;13339;50.840;4.346;2023-08-24T07:36:39;26.70;99.90
25410;DHT22;13339;50.840;4.346;2023-08-24T07:39:05;26.60;99.90
25410;DHT22;13339;50.840;4.346;2023-08-24T07:41:31;26.70;99.90
25410;DHT22;13339;50.840;4.346;2023-08-24T07:43:56;26.60;99.90
25410;DHT22;13339;50.840;4.346;2023-08-24T07:46:22;26.60;99.90
25410;DHT22;13339;50.840;4.346;2023-08-24T07:48:47;26.70;99.90
25410;DHT22;13339;50.840;4.346;2023-08-24T07:51:13;26.80;99.90
25410;DHT22;13339;50.840;4.346;2023-08-24T07:53:39;26.90;99.90
25410;DHT22;13339;50.840;4.346;2023-08-24T07:56:04;26.90;99.90
25410;DHT22;13339;50.840;4.346;2023-08-24T07:58:30;27.00;99.90
25410;DHT22;13339;50.840;4.346;2023-08-24T08:00:58;27.00;99.90
25410;DHT22;13339;50.840;4.346;2023-08-24T08:03:24;27.00;99.90
25410;DHT22;13339;50.840;4.346;2023-08-24T08:05:50;26.90;99.90
25410;DHT22;13339;50.840;4.346;2023-08-24T08:08:16;26.90;99.90
25410;DHT22;13339;50.840;4.346;2023-08-24T08:10:42;26.90;99.90
25410;DHT22;13339;50.840;4.346;2023-08-24T08:13:08;26.90;99.90
25410;DHT22;13339;50.840;4.346;2023-08-24T08:15:36;27.00;99.90
25410;DHT22;13339;50.840;4.346;2023-08-24T08:18:04;26.90;99.90
25410;DHT22;13339;50.840;4.346;2023-08-24T08:20:30;27.00;99.90
25410;DHT22;13339;50.840;4.346;2023-08-24T08:22:56;27.10;99.90
25410;DHT22;13339;50.840;4.346;2023-08-24T08:25:21;27.20;99.90
25410;DHT22;13339;50.840;4.346;2023-08-24T08:27:48;27.30;99.90
25410;DHT22;13339;50.840;4.346;2023-08-24T08:30:14;27.30;99.90
25410;DHT22;13339;50.840;4.346;2023-08-24T08:32:41;27.30;99.90
25410;DHT22;13339;50.840;4.346;2023-08-24T08:35:07;27.30;99.90
25410;DHT22;13339;50.840;4.346;2023-08-24T08:37:33;27.30;99.90
25410;DHT22;13339;50.840;4.346;2023-08-24T08:39:59;27.30;99.90
25410;DHT22;13339;50.840;4.346;2023-08-24T08:42:24;27.30;99.90
25410;DHT22;13339;50.840;4.346;2023-08-24T08:44:51;27.30;99.90
25410;DHT22;13339;50.840;4.346;2023-08-24T08:47:20;27.40;99.90
25410;DHT22;13339;50.840;4.346;2023-08-24T08:49:48;27.50;99.90
25410;DHT22;13339;50.840;4.346;2023-08-24T08:52:14;27.60;99.90
25410;DHT22;13339;50.840;4.346;2023-08-24T08:54:40;27.60;99.90
25410;DHT22;13339;50.840;4.346;2023-08-24T08:57:06;27.70;99.90
25410;DHT22;13339;50.840;4.346;2023-08-24T08:59:32;27.80;99.90
25410;DHT22;13339;50.840;4.346;2023-08-24T09:02:01;27.90;99.90
25410;DHT22;13339;50.840;4.346;2023-08-24T09:04:31;27.90;99.90
25410;DHT22;13339;50.840;4.346;2023-08-24T09:06:57;27.90;99.90
25410;DHT22;13339;50.840;4.346;2023-08-24T09:09:24;27.70;99.90
25410;DHT22;13339;50.840;4.346;2023-08-24T09:11:50;27.70;99.90
25410;DHT22;13339;50.840;4.346;2023-08-24T09:14:16;27.60;99.90
25410;DHT22;13339;50.840;4.346;2023-08-24T09:16:41;27.60;99.90
25410;DHT22;13339;50.840;4.346;2023-08-24T09:19:11;27.50;99.90
25410;DHT22;13339;50.840;4.346;2023-08-24T09:21:38;27.50;99.90
25410;DHT22;13339;50.840;4.346;2023-08-24T09:24:05;27.30;99.90
25410;DHT22;13339;50.840;4.346;2023-08-24T09:26:33;27.20;99.90
25410;DHT22;13339;50.840;4.346;2023-08-24T09:29:00;27.00;99.90
25410;DHT22;13339;50.840;4.346;2023-08-24T09:31:35;26.90;99.90
25410;DHT22;13339;50.840;4.346;2023-08-24T09:34:02;26.90;99.90
25410;DHT22;13339;50.840;4.346;2023-08-24T09:36:31;26.80;99.90
25410;DHT22;13339;50.840;4.346;2023-08-24T09:38:59;26.70;99.90
25410;DHT22;13339;50.840;4.346;2023-08-24T09:41:40;26.50;99.90
25410;DHT22;13339;50.840;4.346;2023-08-24T09:44:07;26.10;99.90
25410;DHT22;13339;50.840;4.346;2023-08-24T09:46:35;25.90;99.90
25410;DHT22;13339;50.840;4.346;2023-08-24T09:49:01;25.60;99.90
25410;DHT22;13339;50.840;4.346;2023-08-24T09:51:27;25.40;99.90
25410;DHT22;13339;50.840;4.346;2023-08-24T09:53:57;25.10;99.90
25410;DHT22;13339;50.840;4.346;2023-08-24T09:56:25;24.90;99.90
25410;DHT22;13339;50.840;4.346;2023-08-24T09:58:54;24.70;99.90
25410;DHT22;13339;50.840;4.346;2023-08-24T10:01:20;24.60;99.90
25410;DHT22;13339;50.840;4.346;2023-08-24T10:03:51;24.40;99.90
25410;DHT22;13339;50.840;4.346;2023-08-24T10:06:19;24.30;99.90
25410;DHT22;13339;50.840;4.346;2023-08-24T10:08:54;24.20;99.90
25410;DHT22;13339;50.840;4.346;2023-08-24T10:11:26;24.10;99.90
25410;DHT22;13339;50.840;4.346;2023-08-24T10:14:21;24.00;99.90
25410;DHT22;13339;50.840;4.346;2023-08-24T10:16:49;24.00;99.90
25410;DHT22;13339;50.840;4.346;2023-08-24T10:19:15;23.90;99.90
25410;DHT22;13339;50.840;4.346;2023-08-24T10:21:42;23.90;99.90
25410;DHT22;13339;50.840;4.346;2023-08-24T10:24:08;23.90;99.90
25410;DHT22;13339;50.840;4.346;2023-08-24T10:26:36;23.80;99.90
25410;DHT22;13339;50.840;4.346;2023-08-24T10:29:03;23.70;99.90
25410;DHT22;13339;50.840;4.346;2023-08-24T10:31:31;23.80;99.90
25410;DHT22;13339;50.840;4.346;2023-08-24T10:33:57;23.70;99.90
25410;DHT22;13339;50.840;4.346;2023-08-24T10:36:23;23.70;99.90
25410;DHT22;13339;50.840;4.346;2023-08-24T10:38:49;23.70;99.90
25410;DHT22;13339;50.840;4.346;2023-08-24T10:41:15;23.60;99.90
25410;DHT22;13339;50.840;4.346;2023-08-24T10:43:41;23.50;99.90
25410;DHT22;13339;50.840;4.346;2023-08-24T10:46:14;23.60;99.90
25410;DHT22;13339;50.840;4.346;2023-08-24T10:51:22;23.70;99.90
25410;DHT22;13339;50.840;4.346;2023-08-24T10:54:01;23.60;99.90
25410;DHT22;13339;50.840;4.346;2023-08-24T10:56:37;23.60;99.90
25410;DHT22;13339;50.840;4.346;2023-08-24T11:04:19;24.00;99.90
25410;DHT22;13339;50.840;4.346;2023-08-24T11:06:55;24.00;99.90
25410;DHT22;13339;50.840;4.346;2023-08-24T11:09:23;24.10;99.90
25410;DHT22;13339;50.840;4.346;2023-08-24T11:11:57;24.30;99.90
25410;DHT22;13339;50.840;4.346;2023-08-24T11:14:23;24.50;99.90
25410;DHT22;13339;50.840;4.346;2023-08-24T11:16:52;24.60;99.90
25410;DHT22;13339;50.840;4.346;2023-08-24T11:19:18;24.60;99.90
25410;DHT22;13339;50.840;4.346;2023-08-24T11:21:45;24.50;99.90
25410;DHT22;13339;50.840;4.346;2023-08-24T11:24:13;24.60;99.90
25410;DHT22;13339;50.840;4.346;2023-08-24T11:26:47;24.70;99.90
25410;DHT22;13339;50.840;4.346;2023-08-24T11:29:13;24.90;99.90
25410;DHT22;13339;50.840;4.346;2023-08-24T11:31:39;24.90;99.90
25410;DHT22;13339;50.840;4.346;2023-08-24T11:34:05;24.90;99.90
25410;DHT22;13339;50.840;4.346;2023-08-24T11:36:42;25.10;99.90
25410;DHT22;13339;50.840;4.346;2023-08-24T11:39:17;25.10;99.90
25410;DHT22;13339;50.840;4.346;2023-08-24T11:41:56;25.00;99.90
25410;DHT22;13339;50.840;4.346;2023-08-24T11:44:21;25.10;99.90
25410;DHT22;13339;50.840;4.346;2023-08-24T11:46:47;25.20;99.90
25410;DHT22;13339;50.840;4.346;2023-08-24T11:49:12;25.20;99.90
25410;DHT22;13339;50.840;4.346;2023-08-24T11:51:38;25.10;99.90
25410;DHT22;13339;50.840;4.346;2023-08-24T11:54:04;25.10;99.90
25410;DHT22;13339;50.840;4.346;2023-08-24T11:56:29;25.20;99.90
25410;DHT22;13339;50.840;4.346;2023-08-24T11:58:55;25.20;99.90
25410;DHT22;13339;50.840;4.346;2023-08-24T12:01:21;25.20;99.90
25410;DHT22;13339;50.840;4.346;2023-08-24T12:03:47;25.20;99.90
25410;DHT22;13339;50.840;4.346;2023-08-24T12:06:16;25.10;99.90
25410;DHT22;13339;50.840;4.346;2023-08-24T12:08:46;25.00;99.90
25410;DHT22;13339;50.840;4.346;2023-08-24T12:11:18;25.10;99.90
25410;DHT22;13339;50.840;4.346;2023-08-24T12:13:49;25.10;99.90
25410;DHT22;13339;50.840;4.346;2023-08-24T12:16:19;25.00;99.90
25410;DHT22;13339;50.840;4.346;2023-08-24T12:18:56;24.90;99.90
25410;DHT22;13339;50.840;4.346;2023-08-24T12:21:23;24.70;99.90
25410;DHT22;13339;50.840;4.346;2023-08-24T12:24:02;24.30;99.90
25410;DHT22;13339;50.840;4.346;2023-08-24T12:26:34;24.20;99.90
25410;DHT22;13339;50.840;4.346;2023-08-24T12:29:02;24.20;99.90
25410;DHT22;13339;50.840;4.346;2023-08-24T12:31:29;24.00;99.90
25410;DHT22;13339;50.840;4.346;2023-08-24T12:34:07;23.90;99.90
25410;DHT22;13339;50.840;4.346;2023-08-24T12:36:38;23.70;99.90
25410;DHT22;13339;50.840;4.346;2023-08-24T12:39:05;23.70;99.90
25410;DHT22;13339;50.840;4.346;2023-08-24T12:41:31;23.50;99.90
25410;DHT22;13339;50.840;4.346;2023-08-24T12:43:57;23.30;99.90
25410;DHT22;13339;50.840;4.346;2023-08-24T12:46:23;23.20;99.90
25410;DHT22;13339;50.840;4.346;2023-08-24T12:48:49;23.10;99.90
25410;DHT22;13339;50.840;4.346;2023-08-24T12:51:15;22.90;99.90
25410;DHT22;13339;50.840;4.346;2023-08-24T12:53:41;22.90;99.90
25410;DHT22;13339;50.840;4.346;2023-08-24T12:56:07;22.80;99.90
25410;DHT22;13339;50.840;4.346;2023-08-24T12:58:33;22.70;99.90
25410;DHT22;13339;50.840;4.346;2023-08-24T13:00:59;22.50;99.90
25410;DHT22;13339;50.840;4.346;2023-08-24T13:03:25;22.60;99.90
25410;DHT22;13339;50.840;4.346;2023-08-24T13:05:50;22.50;99.90
25410;DHT22;13339;50.840;4.346;2023-08-24T13:08:16;22.50;99.90
25410;DHT22;13339;50.840;4.346;2023-08-24T13:10:42;22.50;99.90
25410;DHT22;13339;50.840;4.346;2023-08-24T13:13:08;22.50;99.90
25410;DHT22;13339;50.840;4.346;2023-08-24T13:15:33;22.60;99.90
25410;DHT22;13339;50.840;4.346;2023-08-24T13:17:59;22.60;99.90
25410;DHT22;13339;50.840;4.346;2023-08-24T13:20:25;22.60;99.90
25410;DHT22;13339;50.840;4.346;2023-08-24T13:22:53;22.60;99.90
25410;DHT22;13339;50.840;4.346;2023-08-24T13:25:19;22.70;99.90
25410;DHT22;13339;50.840;4.346;2023-08-24T13:27:45;22.70;99.90
25410;DHT22;13339;50.840;4.346;2023-08-24T13:30:10;22.70;99.90
25410;DHT22;13339;50.840;4.346;2023-08-24T13:32:36;22.70;99.90
25410;DHT22;13339;50.840;4.346;2023-08-24T13:35:05;22.70;99.90
25410;DHT22;13339;50.840;4.346;2023-08-24T13:37:32;22.70;99.90
25410;DHT22;13339;50.840;4.346;2023-08-24T13:40:00;22.80;99.90
25410;DHT22;13339;50.840;4.346;2023-08-24T13:42:26;22.80;99.90
25410;DHT22;13339;50.840;4.346;2023-08-24T13:44:52;22.80;99.90
25410;DHT22;13339;50.840;4.346;2023-08-24T13:47:18;22.80;99.90
25410;DHT22;13339;50.840;4.346;2023-08-24T13:49:43;22.90;99.90
25410;DHT22;13339;50.840;4.346;2023-08-24T13:52:09;22.80;99.90
25410;DHT22;13339;50.840;4.346;2023-08-24T13:54:35;22.90;99.90
25410;DHT22;13339;50.840;4.346;2023-08-24T13:57:00;22.90;99.90
25410;DHT22;13339;50.840;4.346;2023-08-24T13:59:27;22.80;99.90
25410;DHT22;13339;50.840;4.346;2023-08-24T14:01:52;22.90;99.90
25410;DHT22;13339;50.840;4.346;2023-08-24T14:04:18;22.80;99.90
25410;DHT22;13339;50.840;4.346;2023-08-24T14:06:44;22.90;99.90
25410;DHT22;13339;50.840;4.346;2023-08-24T14:09:10;22.80;99.90
25410;DHT22;13339;50.840;4.346;2023-08-24T14:11:36;22.90;99.90
25410;DHT22;13339;50.840;4.346;2023-08-24T14:14:01;23.10;99.90
25410;DHT22;13339;50.840;4.346;2023-08-24T14:16:27;23.20;99.90
25410;DHT22;13339;50.840;4.346;2023-08-24T14:18:53;23.30;99.90
25410;DHT22;13339;50.840;4.346;2023-08-24T14:21:19;23.50;99.90
25410;DHT22;13339;50.840;4.346;2023-08-24T14:23:49;23.60;99.90
25410;DHT22;13339;50.840;4.346;2023-08-24T14:26:14;23.70;99.90
25410;DHT22;13339;50.840;4.346;2023-08-24T14:28:57;23.60;99.90
25410;DHT22;13339;50.840;4.346;2023-08-24T14:31:24;23.80;99.90
25410;DHT22;13339;50.840;4.346;2023-08-24T14:33:51;23.80;99.90
25410;DHT22;13339;50.840;4.346;2023-08-24T14:36:17;24.00;99.90
25410;DHT22;13339;50.840;4.346;2023-08-24T14:38:43;24.10;99.90
25410;DHT22;13339;50.840;4.346;2023-08-24T14:41:10;24.10;99.90
25410;DHT22;13339;50.840;4.346;2023-08-24T14:43:36;24.10;99.90
25410;DHT22;13339;50.840;4.346;2023-08-24T14:46:02;24.10;99.90
25410;DHT22;13339;50.840;4.346;2023-08-24T14:48:28;24.30;99.90
25410;DHT22;13339;50.840;4.346;2023-08-24T14:50:54;24.30;99.90
25410;DHT22;13339;50.840;4.346;2023-08-24T14:53:19;24.30;99.90
25410;DHT22;13339;50.840;4.346;2023-08-24T14:55:45;24.40;99.90
25410;DHT22;13339;50.840;4.346;2023-08-24T14:58:11;24.50;99.90
25410;DHT22;13339;50.840;4.346;2023-08-24T15:00:36;24.50;99.90
25410;DHT22;13339;50.840;4.346;2023-08-24T15:03:03;24.50;99.90
25410;DHT22;13339;50.840;4.346;2023-08-24T15:05:28;24.50;99.90
25410;DHT22;13339;50.840;4.346;2023-08-24T15:07:54;24.60;99.90
25410;DHT22;13339;50.840;4.346;2023-08-24T15:10:20;24.50;99.90
25410;DHT22;13339;50.840;4.346;2023-08-24T15:12:47;24.60;99.90
25410;DHT22;13339;50.840;4.346;2023-08-24T15:15:13;24.60;99.90
25410;DHT22;13339;50.840;4.346;2023-08-24T15:17:43;24.70;99.90
25410;DHT22;13339;50.840;4.346;2023-08-24T15:20:10;24.80;99.90
25410;DHT22;13339;50.840;4.346;2023-08-24T15:22:38;24.80;99.90
25410;DHT22;13339;50.840;4.346;2023-08-24T15:25:04;24.80;99.90
25410;DHT22;13339;50.840;4.346;2023-08-24T15:27:30;24.90;99.90
25410;DHT22;13339;50.840;4.346;2023-08-24T15:29:56;25.00;99.90
25410;DHT22;13339;50.840;4.346;2023-08-24T15:32:22;25.00;99.90
25410;DHT22;13339;50.840;4.346;2023-08-24T15:34:48;25.10;99.90
25410;DHT22;13339;50.840;4.346;2023-08-24T15:37:13;25.20;99.90
25410;DHT22;13339;50.840;4.346;2023-08-24T15:39:40;25.30;99.90
25410;DHT22;13339;50.840;4.346;2023-08-24T15:42:06;25.50;99.90
25410;DHT22;13339;50.840;4.346;2023-08-24T15:44:33;25.70;99.90
25410;DHT22;13339;50.840;4.346;2023-08-24T15:46:59;25.70;99.90